createdAt,value
2018-02-10T00:00:15.802Z,7.60
2018-02-10T00:02:44.270Z,7.60
2018-02-10T00:05:12.855Z,7.70
2018-02-10T00:07:41.339Z,7.70
2018-02-10T00:10:10.718Z,7.70
2018-02-10T00:12:39.337Z,7.80
2018-02-10T00:15:07.894Z,7.90
2018-02-10T00:17:36.480Z,8.00
2018-02-10T00:20:04.977Z,8.10
2018-02-10T00:22:37.613Z,8.10
2018-02-10T00:25:19.369Z,8.10
2018-02-10T00:27:47.930Z,8.10
2018-02-10T00:30:16.495Z,8.10
2018-02-10T00:32:44.979Z,8.20
2018-02-10T00:35:13.152Z,8.30
2018-02-10T00:37:41.627Z,8.30
2018-02-10T00:40:13.708Z,8.40
2018-02-10T00:42:43.193Z,8.50
2018-02-10T00:45:11.891Z,8.50
2018-02-10T00:47:40.472Z,8.40
2018-02-10T00:50:08.952Z,8.40
2018-02-10T00:52:37.531Z,8.50
2018-02-10T00:55:06.065Z,8.40
2018-02-10T00:57:37.209Z,8.40
2018-02-10T01:00:05.813Z,8.50
2018-02-10T01:02:34.432Z,8.50
2018-02-10T01:05:02.913Z,8.50
2018-02-10T01:07:40.355Z,8.50
2018-02-10T01:10:21.842Z,8.70
2018-02-10T01:12:51.031Z,8.70
2018-02-10T01:15:19.761Z,8.70
2018-02-10T01:17:55.799Z,8.70
2018-02-10T01:20:25.355Z,8.80
2018-02-10T01:22:55.762Z,8.70
2018-02-10T01:25:25.165Z,8.70
2018-02-10T01:27:55.261Z,8.70
2018-02-10T01:30:27.817Z,8.80
2018-02-10T01:32:57.158Z,8.90
2018-02-10T01:35:26.662Z,8.90
2018-02-10T01:37:55.140Z,8.90
2018-02-10T01:40:23.551Z,8.90
2018-02-10T01:42:52.003Z,8.90
2018-02-10T01:45:20.479Z,9.00
2018-02-10T01:47:55.636Z,9.00
2018-02-10T01:50:25.739Z,8.90
2018-02-10T01:52:56.066Z,8.90
2018-02-10T01:55:24.541Z,8.90
2018-02-10T01:57:52.853Z,8.80
2018-02-10T02:00:21.294Z,8.80
2018-02-10T02:02:49.780Z,8.80
2018-02-10T02:05:20.918Z,8.80
2018-02-10T02:07:49.464Z,8.80
2018-02-10T02:10:18.804Z,9.10
2018-02-10T02:12:47.302Z,9.10
2018-02-10T02:15:22.358Z,9.10
2018-02-10T02:17:50.757Z,9.00
2018-02-10T02:20:20.260Z,8.70
2018-02-10T02:22:49.509Z,8.60
2018-02-10T02:25:17.921Z,8.60
2018-02-10T02:27:46.263Z,8.50
2018-02-10T02:30:14.840Z,8.50
2018-02-10T02:32:43.219Z,8.40
2018-02-10T02:35:20.176Z,8.20
2018-02-10T02:37:49.503Z,8.30
2018-02-10T02:40:22.032Z,8.30
2018-02-10T02:42:51.387Z,8.10
2018-02-10T02:45:20.284Z,8.10
2018-02-10T02:47:49.254Z,8.10
2018-02-10T02:50:17.848Z,8.10
2018-02-10T02:52:46.964Z,8.10
2018-02-10T02:55:17.612Z,8.20
2018-02-10T02:57:48.976Z,8.20
2018-02-10T03:00:19.181Z,8.20
2018-02-10T03:02:49.099Z,8.10
2018-02-10T03:05:29.212Z,8.10
2018-02-10T03:07:58.688Z,8.00
2018-02-10T03:10:28.952Z,7.90
2018-02-10T03:12:59.372Z,7.90
2018-02-10T03:15:29.285Z,7.60
2018-02-10T03:17:57.910Z,7.60
2018-02-10T03:20:26.819Z,7.60
2018-02-10T03:22:56.907Z,7.50
2018-02-10T03:25:26.167Z,7.50
2018-02-10T03:27:55.263Z,7.40
2018-02-10T03:30:31.552Z,7.50
2018-02-10T03:33:00.012Z,7.40
2018-02-10T03:35:28.588Z,7.40
2018-02-10T03:37:57.914Z,7.30
2018-02-10T03:40:27.294Z,7.20
2018-02-10T03:42:55.978Z,7.10
2018-02-10T03:45:25.994Z,7.00
2018-02-10T03:47:54.585Z,7.00
2018-02-10T03:50:23.058Z,7.10
2018-02-10T03:52:51.536Z,7.10
2018-02-10T03:55:27.799Z,7.00
2018-02-10T03:57:56.199Z,7.10
2018-02-10T04:00:25.304Z,7.10
2018-02-10T04:03:09.427Z,7.10
2018-02-10T04:05:37.901Z,7.20
2018-02-10T04:08:06.386Z,7.10
2018-02-10T04:10:34.882Z,7.00
2018-02-10T04:13:03.344Z,7.00
2018-02-10T04:15:33.669Z,7.00
2018-02-10T04:18:02.259Z,7.00
2018-02-10T04:20:30.835Z,6.90
2018-02-10T04:22:59.317Z,6.70
2018-02-10T04:25:28.526Z,6.50
2018-02-10T04:28:09.910Z,6.40
2018-02-10T04:30:38.429Z,6.30
2018-02-10T05:16:51.542Z,6.40
2018-02-10T05:19:20.318Z,7.50
2018-02-10T05:21:52.469Z,7.40
2018-02-10T05:24:20.846Z,7.30
2018-02-10T05:26:49.299Z,7.20
2018-02-10T05:29:17.786Z,7.10
2018-02-10T05:31:46.159Z,7.10
2018-02-10T05:34:14.645Z,7.20
2018-02-10T05:36:42.952Z,7.10
2018-02-10T05:39:12.481Z,7.10
2018-02-10T05:41:41.013Z,7.10
2018-02-10T05:44:09.398Z,7.30
2018-02-10T05:46:37.980Z,7.40
2018-02-10T05:49:06.451Z,7.30
2018-02-10T05:51:35.358Z,7.30
2018-02-10T05:54:03.846Z,7.30
2018-02-10T05:56:32.232Z,7.40
2018-02-10T05:59:00.682Z,7.50
2018-02-10T06:01:30.376Z,7.50
2018-02-10T06:03:59.890Z,7.40
2018-02-10T06:06:28.473Z,7.50
2018-02-10T06:08:56.917Z,7.40
2018-02-10T06:11:26.154Z,7.20
2018-02-10T06:14:02.078Z,7.10
2018-02-10T06:16:31.314Z,7.00
2018-02-10T06:19:06.073Z,7.00
2018-02-10T06:21:34.513Z,7.00
2018-02-10T06:24:02.994Z,7.30
2018-02-10T06:26:37.519Z,7.20
2018-02-10T06:29:06.208Z,7.00
2018-02-10T06:31:34.794Z,7.10
2018-02-10T06:34:03.382Z,7.20
2018-02-10T06:36:31.982Z,7.30
2018-02-10T06:39:00.646Z,7.40
2018-02-10T06:41:29.303Z,7.50
2018-02-10T06:43:57.816Z,7.60
2018-02-10T06:46:26.499Z,7.60
2018-02-10T06:48:54.981Z,7.70
2018-02-10T06:51:23.772Z,7.60
2018-02-10T06:53:53.132Z,7.60
2018-02-10T06:56:23.128Z,7.50
2018-02-10T06:58:53.045Z,7.70
2018-02-10T07:01:23.579Z,7.60
2018-02-10T07:03:53.136Z,7.60
2018-02-10T07:06:21.620Z,7.60
2018-02-10T07:08:54.867Z,7.50
2018-02-10T07:11:24.210Z,7.80
2018-02-10T07:13:52.587Z,7.80
2018-02-10T07:16:22.094Z,7.80
2018-02-10T07:18:50.675Z,7.80
2018-02-10T07:21:21.389Z,7.70
2018-02-10T07:23:49.879Z,7.70
2018-02-10T07:26:18.367Z,7.70
2018-02-10T07:28:46.947Z,7.70
2018-02-10T07:31:15.356Z,7.70
2018-02-10T07:33:57.681Z,7.70
2018-02-10T07:36:26.939Z,7.70
2018-02-10T07:39:07.336Z,7.70
2018-02-10T07:41:35.983Z,7.70
2018-02-10T07:44:04.559Z,7.70
2018-02-10T07:46:42.864Z,7.80
2018-02-10T07:49:25.835Z,8.10
2018-02-10T07:51:54.429Z,8.50
2018-02-10T07:54:24.088Z,9.00
2018-02-10T07:56:53.787Z,9.00
2018-02-10T07:59:30.841Z,9.30
2018-02-10T08:01:59.870Z,9.70
2018-02-10T08:04:31.354Z,9.80
2018-02-10T08:07:00.623Z,9.90
2018-02-10T08:09:30.023Z,9.80
2018-02-10T08:11:58.387Z,9.50
2018-02-10T08:14:26.986Z,9.80
2018-02-10T08:16:55.564Z,10.30
2018-02-10T08:19:24.059Z,10.10
2018-02-10T08:21:52.753Z,10.00
2018-02-10T08:24:21.272Z,10.20
2018-02-10T08:26:50.612Z,10.20
2018-02-10T08:29:19.400Z,10.20
2018-02-10T08:31:47.982Z,10.20
2018-02-10T08:34:16.522Z,10.30
2018-02-10T08:36:46.236Z,9.80
2018-02-10T08:39:15.687Z,9.80
2018-02-10T08:41:44.786Z,10.20
2018-02-10T08:44:13.254Z,10.60
2018-02-10T08:46:41.741Z,10.10
2018-02-10T08:49:12.065Z,10.90
2018-02-10T08:51:41.357Z,11.50
2018-02-10T08:54:13.827Z,11.50
2018-02-10T08:56:43.812Z,11.10
2018-02-10T08:59:23.735Z,10.70
2018-02-10T09:01:53.000Z,10.70
2018-02-10T09:04:21.693Z,11.20
2018-02-10T09:06:50.273Z,11.40
2018-02-10T09:09:21.440Z,11.50
2018-02-10T09:11:50.912Z,11.50
2018-02-10T09:14:20.859Z,11.80
2018-02-10T09:16:52.686Z,11.40
2018-02-10T09:19:21.070Z,11.40
2018-02-10T09:21:49.552Z,11.10
2018-02-10T09:24:18.024Z,11.10
2018-02-10T09:26:47.637Z,11.20
2018-02-10T09:29:16.122Z,11.10
2018-02-10T09:31:44.614Z,11.60
2018-02-10T09:34:13.181Z,12.10
2018-02-10T09:36:41.759Z,11.80
2018-02-10T09:39:10.345Z,12.60
2018-02-10T09:41:38.844Z,13.20
2018-02-10T09:44:07.259Z,14.20
2018-02-10T09:46:37.170Z,12.70
2018-02-10T09:49:06.623Z,12.70
2018-02-10T09:51:35.048Z,13.30
2018-02-10T09:54:03.539Z,13.40
2018-02-10T09:56:32.992Z,15.10
2018-02-10T09:59:05.492Z,15.00
2018-02-10T10:01:35.475Z,13.60
2018-02-10T10:04:04.059Z,13.60
2018-02-10T10:06:32.545Z,14.40
2018-02-10T10:09:01.123Z,14.80
2018-02-10T10:11:29.507Z,14.00
2018-02-10T10:14:01.861Z,13.70
2018-02-10T10:16:31.078Z,13.90
2018-02-10T10:18:59.520Z,13.30
2018-02-10T10:21:28.725Z,14.60
2018-02-10T10:23:57.489Z,14.60
2018-02-10T10:26:30.449Z,15.30
2018-02-10T10:29:00.130Z,15.30
2018-02-10T10:31:37.096Z,15.90
2018-02-10T10:34:10.557Z,15.20
2018-02-10T10:36:42.470Z,14.70
2018-02-10T10:39:10.951Z,16.60
2018-02-10T10:41:40.542Z,17.60
2018-02-10T10:44:19.420Z,17.00
2018-02-10T10:46:48.553Z,16.90
2018-02-10T10:49:18.316Z,17.30
2018-02-10T10:51:46.621Z,17.30
2018-02-10T10:54:15.181Z,17.80
2018-02-10T10:56:43.507Z,16.40
2018-02-10T10:59:12.723Z,15.60
2018-02-10T11:01:42.138Z,15.50
2018-02-10T11:04:10.717Z,16.40
2018-02-10T11:06:41.157Z,15.90
2018-02-10T11:09:11.101Z,16.60
2018-02-10T11:11:39.643Z,16.60
2018-02-10T11:14:08.221Z,17.30
2018-02-10T11:16:36.666Z,17.60
2018-02-10T11:19:06.218Z,17.60
2018-02-10T11:21:46.873Z,17.50
2018-02-10T11:24:15.403Z,17.90
2018-02-10T11:26:44.593Z,18.00
2018-02-10T11:29:13.848Z,18.90
2018-02-10T11:31:43.720Z,18.90
2018-02-10T11:34:21.262Z,17.70
2018-02-10T11:36:49.635Z,16.20
2018-02-10T11:39:17.973Z,16.90
2018-02-10T11:41:47.136Z,18.80
2018-02-10T11:44:17.127Z,18.80
2018-02-10T11:46:45.510Z,16.90
2018-02-10T11:49:14.090Z,17.30
2018-02-10T11:51:42.681Z,19.00
2018-02-10T11:54:11.256Z,19.90
2018-02-10T11:56:44.340Z,19.70
2018-02-10T11:59:12.997Z,20.30
2018-02-10T12:01:42.274Z,19.90
2018-02-10T12:04:10.708Z,19.90
2018-02-10T12:06:39.505Z,19.70
2018-02-10T12:09:08.102Z,19.90
2018-02-10T12:11:38.309Z,19.60
2018-02-10T12:14:06.990Z,17.40
2018-02-10T12:16:35.582Z,15.70
2018-02-10T12:19:07.026Z,16.60
2018-02-10T12:21:35.551Z,18.00
2018-02-10T12:24:04.802Z,18.90
2018-02-10T12:26:33.591Z,18.90
2018-02-10T12:29:04.427Z,19.90
2018-02-10T12:31:33.924Z,21.40
2018-02-10T12:34:02.416Z,21.30
2018-02-10T12:36:42.290Z,21.50
2018-02-10T12:39:11.659Z,21.10
2018-02-10T12:41:41.166Z,21.10
2018-02-10T12:44:09.751Z,21.80
2018-02-10T12:46:45.818Z,20.70
2018-02-10T12:49:30.575Z,19.30
2018-02-10T12:51:59.157Z,20.20
2018-02-10T12:54:27.737Z,19.40
2018-02-10T12:57:04.109Z,18.10
2018-02-10T12:59:35.565Z,19.40
2018-02-10T13:02:18.070Z,19.40
2018-02-10T13:04:46.550Z,20.00
2018-02-10T13:07:16.220Z,20.30
2018-02-10T13:09:45.874Z,18.30
2018-02-10T13:12:15.212Z,18.00
2018-02-10T13:14:43.759Z,18.90
2018-02-10T13:17:13.244Z,21.00
2018-02-10T13:19:41.839Z,21.00
2018-02-10T13:22:10.272Z,19.60
2018-02-10T13:24:39.562Z,19.50
2018-02-10T13:27:09.427Z,19.80
2018-02-10T13:29:37.932Z,19.80
2018-02-10T13:32:06.342Z,20.60
2018-02-10T13:34:35.069Z,21.10
2018-02-10T13:37:05.017Z,18.20
2018-02-10T13:39:34.392Z,18.10
2018-02-10T13:42:03.334Z,18.10
2018-02-10T13:44:32.683Z,17.00
2018-02-10T13:47:01.910Z,17.00
2018-02-10T13:49:30.465Z,18.40
2018-02-10T13:52:07.199Z,18.90
2018-02-10T13:54:36.440Z,20.70
2018-02-10T13:57:11.880Z,20.70
2018-02-10T13:59:40.308Z,20.10
2018-02-10T14:02:08.838Z,17.90
2018-02-10T14:04:37.327Z,18.20
2018-02-10T14:07:05.914Z,19.00
2018-02-10T14:09:34.281Z,18.50
2018-02-10T14:12:02.790Z,18.50
2018-02-10T14:14:35.641Z,18.50
2018-02-10T14:17:05.032Z,20.10
2018-02-10T14:19:40.674Z,20.50
2018-02-10T14:22:09.822Z,20.70
2018-02-10T14:24:38.392Z,20.70
2018-02-10T14:27:06.892Z,20.40
2018-02-10T14:29:35.652Z,21.20
2018-02-10T14:32:06.026Z,20.60
2018-02-10T14:34:42.786Z,20.70
2018-02-10T14:37:13.276Z,20.30
2018-02-10T14:39:41.725Z,20.20
2018-02-10T14:42:10.134Z,19.30
2018-02-10T14:44:44.671Z,17.70
2018-02-10T14:47:13.141Z,18.60
2018-02-10T14:49:41.744Z,19.00
2018-02-10T14:52:10.311Z,20.00
2018-02-10T14:54:40.903Z,20.80
2018-02-10T14:57:10.259Z,19.00
2018-02-10T14:59:39.081Z,19.00
2018-02-10T15:02:07.514Z,20.10
2018-02-10T15:04:35.985Z,20.30
2018-02-10T15:07:04.428Z,20.80
2018-02-10T15:09:33.669Z,20.10
2018-02-10T15:12:02.090Z,20.10
2018-02-10T15:14:31.138Z,20.00
2018-02-10T15:16:59.688Z,20.60
2018-02-10T15:19:28.304Z,21.10
2018-02-10T15:21:56.787Z,21.60
2018-02-10T15:24:25.373Z,21.10
2018-02-10T15:26:55.346Z,19.50
2018-02-10T15:29:24.586Z,20.30
2018-02-10T15:32:05.769Z,20.20
2018-02-10T15:34:46.715Z,20.60
2018-02-10T15:37:21.982Z,19.70
2018-02-10T15:39:50.603Z,19.70
2018-02-10T15:42:20.172Z,19.00
2018-02-10T15:44:48.686Z,19.00
2018-02-10T15:47:27.365Z,19.10
2018-02-10T15:49:55.788Z,19.60
2018-02-10T15:52:24.225Z,18.60
2018-02-10T15:54:53.162Z,18.90
2018-02-10T15:57:22.588Z,19.00
2018-02-10T15:59:53.776Z,19.20
2018-02-10T16:02:23.532Z,19.20
2018-02-10T16:04:52.874Z,20.30
2018-02-10T16:07:21.306Z,20.20
2018-02-10T16:09:49.801Z,20.00
2018-02-10T16:12:20.202Z,18.30
2018-02-10T16:14:53.421Z,18.30
2018-02-10T16:17:23.270Z,18.80
2018-02-10T16:19:51.851Z,18.20
2018-02-10T16:22:21.772Z,18.00
2018-02-10T16:24:50.466Z,17.50
2018-02-10T16:27:19.967Z,16.20
2018-02-10T16:29:48.750Z,15.50
2018-02-10T16:32:17.278Z,14.50
2018-02-10T16:34:45.815Z,13.80
2018-02-10T16:37:14.975Z,13.40
2018-02-10T16:39:47.188Z,13.20
2018-02-10T16:42:18.023Z,12.80
2018-02-10T16:44:47.289Z,12.90
2018-02-10T16:47:16.113Z,12.60
2018-02-10T16:52:26.885Z,12.30
2018-02-10T16:54:58.602Z,12.10
2018-02-10T16:57:27.744Z,11.80
2018-02-10T16:59:56.226Z,11.60
2018-02-10T17:02:25.455Z,11.10
2018-02-10T17:04:54.274Z,11.10
2018-02-10T17:07:33.833Z,10.50
2018-02-10T17:10:02.370Z,10.50
2018-02-10T17:12:32.757Z,10.00
2018-02-10T17:15:01.244Z,10.00
2018-02-10T17:17:38.059Z,9.80
2018-02-10T17:20:08.567Z,9.50
2018-02-10T17:22:36.949Z,9.50
2018-02-10T17:25:05.497Z,9.40
2018-02-10T17:27:34.548Z,9.30
2018-02-10T17:30:17.174Z,9.20
2018-02-10T17:32:45.821Z,9.10
2018-02-10T17:35:14.481Z,9.00
2018-02-10T17:37:43.313Z,8.90
2018-02-10T17:40:16.560Z,8.90
2018-02-10T17:42:45.245Z,8.80
2018-02-10T17:45:14.756Z,8.80
2018-02-10T17:47:43.381Z,8.80
2018-02-10T17:50:15.510Z,8.80
2018-02-10T17:52:44.496Z,8.80
2018-02-10T17:55:13.971Z,8.70
2018-02-10T17:57:42.925Z,8.70
2018-02-10T18:00:11.472Z,8.70
2018-02-10T18:02:39.954Z,8.70
2018-02-10T18:05:13.959Z,8.80
2018-02-10T18:07:49.305Z,8.80
2018-02-10T18:10:19.077Z,8.70
2018-02-10T18:12:47.598Z,8.80
2018-02-10T18:15:16.078Z,8.80
2018-02-10T18:17:44.489Z,8.80
2018-02-10T18:20:15.191Z,8.80
2018-02-10T18:22:52.262Z,8.80
2018-02-10T18:25:20.966Z,8.70
2018-02-10T18:27:50.729Z,8.80
2018-02-10T18:30:21.705Z,8.70
2018-02-10T18:32:50.502Z,8.70
2018-02-10T18:35:19.320Z,8.70
2018-02-10T18:37:47.866Z,8.60
2018-02-10T18:40:16.417Z,8.50
2018-02-10T18:42:45.669Z,8.40
2018-02-10T18:45:15.742Z,8.40
2018-02-10T18:47:44.352Z,8.40
2018-02-10T18:50:13.855Z,8.50
2018-02-10T18:52:42.435Z,8.50
2018-02-10T18:55:11.289Z,8.60
2018-02-10T18:57:40.636Z,8.80
2018-02-10T19:00:09.826Z,8.70
2018-02-10T19:02:40.976Z,8.80
2018-02-10T19:05:10.369Z,8.80
2018-02-10T19:07:43.447Z,8.90
2018-02-10T19:10:11.940Z,9.00
2018-02-10T19:12:41.898Z,9.30
2018-02-10T19:15:12.808Z,9.60
2018-02-10T19:17:44.463Z,10.10
2018-02-10T19:20:13.086Z,10.10
2018-02-10T19:22:42.345Z,10.30
2018-02-10T19:25:10.912Z,10.30
2018-02-10T19:27:39.415Z,10.40
2018-02-10T19:30:08.042Z,10.40
2018-02-10T19:32:37.387Z,10.40
2018-02-10T19:35:06.728Z,10.40
2018-02-10T19:37:36.141Z,10.30
2018-02-10T19:40:05.492Z,10.20
2018-02-10T19:42:34.153Z,10.20
2018-02-10T19:45:02.859Z,10.00
2018-02-10T19:47:34.955Z,9.70
2018-02-10T19:50:03.708Z,9.60
2018-02-10T19:52:32.093Z,9.60
2018-02-10T19:55:01.198Z,9.50
2018-02-10T19:57:31.682Z,9.30
2018-02-10T20:00:00.729Z,9.30
2018-02-10T20:02:29.801Z,9.30
2018-02-10T20:04:59.046Z,9.30
2018-02-10T20:07:29.671Z,9.30
2018-02-10T20:09:58.217Z,9.30
2018-02-10T20:12:26.896Z,9.40
2018-02-10T20:14:56.474Z,9.40
2018-02-10T20:17:26.624Z,9.40
2018-02-10T20:19:55.415Z,9.40
2018-02-10T20:22:24.005Z,9.30
2018-02-10T20:24:52.598Z,9.20
2018-02-10T20:27:20.983Z,9.30
2018-02-10T20:29:51.591Z,9.30
2018-02-10T20:32:27.696Z,9.30
2018-02-10T20:34:58.039Z,9.30
2018-02-10T20:37:27.486Z,9.20
2018-02-10T20:39:56.122Z,9.20
2018-02-10T20:42:26.281Z,9.20
2018-02-10T20:44:54.864Z,9.10
2018-02-10T20:47:23.401Z,9.10
2018-02-10T20:49:53.683Z,9.20
2018-02-10T20:52:22.255Z,9.20
2018-02-10T20:54:50.831Z,9.20
2018-02-10T20:57:19.178Z,9.30
2018-02-10T20:59:48.303Z,9.50
2018-02-10T21:02:16.791Z,9.50
2018-02-10T21:04:45.225Z,9.40
2018-02-10T21:07:14.467Z,9.40
2018-02-10T21:09:42.956Z,9.40
2018-02-10T21:12:11.418Z,9.50
2018-02-10T21:14:40.073Z,9.40
2018-02-10T21:17:09.633Z,9.30
2018-02-10T21:19:39.749Z,9.20
2018-02-10T21:22:18.710Z,9.30
2018-02-10T21:24:48.646Z,9.40
2018-02-10T21:27:21.566Z,9.50
2018-02-10T21:29:51.502Z,9.50
2018-02-10T21:32:21.428Z,9.50
2018-02-10T21:34:53.673Z,9.40
2018-02-10T21:37:23.170Z,9.40
2018-02-10T21:39:52.016Z,9.40
2018-02-10T21:42:21.080Z,9.40
2018-02-10T21:44:50.420Z,9.40
2018-02-10T21:47:19.822Z,9.50
2018-02-10T21:49:48.551Z,9.40
2018-02-10T21:52:18.027Z,9.40
2018-02-10T21:54:48.366Z,9.40
2018-02-10T21:57:17.268Z,9.40
2018-02-10T21:59:52.221Z,9.30
2018-02-10T22:02:23.074Z,9.20
2018-02-10T22:05:10.612Z,9.40
2018-02-10T22:07:46.887Z,9.40
2018-02-10T22:10:18.987Z,9.40
2018-02-10T22:12:49.260Z,9.40
2018-02-10T22:15:21.050Z,9.40
2018-02-10T22:17:50.588Z,9.30
2018-02-10T22:20:20.905Z,9.20
2018-02-10T22:22:50.298Z,9.20
2018-02-10T22:25:20.854Z,9.10
2018-02-10T22:27:49.708Z,9.10
2018-02-10T22:30:18.510Z,9.00
2018-02-10T22:32:47.048Z,9.00
2018-02-10T22:35:16.504Z,9.00
2018-02-10T22:37:44.970Z,9.00
2018-02-10T22:40:13.479Z,9.00
2018-02-10T22:42:42.043Z,9.40
2018-02-10T22:45:10.649Z,9.30
2018-02-10T22:47:44.443Z,9.20
2018-02-10T22:50:13.006Z,9.30
2018-02-10T22:52:41.538Z,9.20
2018-02-10T22:55:10.743Z,8.80
2018-02-10T22:57:47.338Z,8.60
2018-02-10T23:00:15.838Z,8.60
2018-02-10T23:02:59.884Z,8.50
2018-02-10T23:05:28.931Z,8.40
2018-02-10T23:07:58.625Z,8.30
2018-02-10T23:10:27.180Z,8.30
2018-02-10T23:12:59.134Z,8.10
2018-02-10T23:15:38.272Z,8.00
2018-02-10T23:18:07.833Z,7.90
2018-02-10T23:20:37.275Z,7.70
2018-02-10T23:23:06.371Z,7.70
2018-02-10T23:25:35.423Z,7.60
2018-02-10T23:28:11.831Z,7.80
2018-02-10T23:30:40.323Z,7.80
2018-02-10T23:33:08.719Z,7.70
2018-02-10T23:35:37.484Z,7.50
2018-02-10T23:38:06.785Z,7.20
2018-02-10T23:40:35.286Z,7.20
2018-02-10T23:43:04.905Z,7.00
2018-02-10T23:45:35.968Z,6.80
2018-02-10T23:48:06.344Z,7.00
2018-02-10T23:50:34.813Z,7.00
2018-02-10T23:53:04.057Z,7.20
2018-02-10T23:55:34.152Z,7.10
2018-02-10T23:58:02.749Z,7.20
